Search for airport 
image banner adimage banner adimage banner ad
image banner ad

22PN - St Joseph Regional Health Network

Located in Reading, United States

ICAO - 22PN, IATA -

Data provided by Airmate  

General information

Coordinates: N40°22'30" W75°58'47"
Elevation is 326 feet MSL.
 
View others Airports in Pennsylvania

Operational data

Special qualification required
Current time UTC:
Current local time:
METAR: KRDG 071354Z 18005KT 10SM CLR 16/00 A2990 RMK AO2 SLP128 T01560000
TAF: KRDG 071120Z 0712/0812 VRB03KT P6SM SCT090 BKN200 FM071500 12005KT P6SM SCT040 OVC060 FM072200 26004KT P6SM -SHRA SCT015 OVC025 FM080400 VRB02KT 5SM -SHRA BR OVC020
View NOTAMs / SUP AIP / TFR affecting this airport [VIEW]
Communications frequencies: [VIEW]

Runways:

Airport contact information

Address: Reading United States

Satellite view of 22PN